Solitude, Indiana
Current Conditions -  °F | °C
As of 2:55 AM on Wednesday 26 Nov 2014 (Local Time) from KCUL Reporting Station
Haze Haze  
Wind Chill: -5°   Ceiling: Unl
Heat Index: -5°   Visibility: 4mi
Dew Point: -5°   Wind: 0mph
Humidity: 100%   Direction: NA
Pressure: 30.16"   Gusts: NA
Location:  37.9469°N, 87.9016°W
Report Text: KCUL 260855Z AUTO 00000KT 4SM BR CLR M05/M05 A3016 RMK AO2 T10511051
Loading
Personal Weather Stations






























Interactive Weather Map New forecast layout! Learn more

10-Day Weather Forecast

Advertisements
Track Severe Weather on mobile